createdAt,value
2022-10-05T00:00:03.763Z,9.40
2022-10-05T00:02:32.033Z,9.30
2022-10-05T00:04:59.309Z,9.30
2022-10-05T00:07:25.832Z,9.30
2022-10-05T00:09:57.843Z,9.30
2022-10-05T00:12:26.197Z,9.40
2022-10-05T00:14:56.681Z,9.30
2022-10-05T00:17:26.206Z,9.30
2022-10-05T00:19:54.004Z,9.20
2022-10-05T00:22:23.299Z,9.20
2022-10-05T00:24:54.858Z,9.20
2022-10-05T00:27:21.156Z,9.10
2022-10-05T00:29:48.709Z,9.10
2022-10-05T00:32:15.596Z,9.10
2022-10-05T00:34:42.567Z,9.10
2022-10-05T00:37:09.348Z,9.00
2022-10-05T00:39:38.369Z,9.00
2022-10-05T00:42:36.348Z,9.00
2022-10-05T00:45:15.674Z,8.90
2022-10-05T00:48:06.374Z,8.90
2022-10-05T00:50:50.986Z,8.90
2022-10-05T00:53:31.141Z,9.00
2022-10-05T00:56:05.219Z,9.00
2022-10-05T00:58:49.327Z,9.00
2022-10-05T01:01:17.732Z,9.00
2022-10-05T01:04:16.702Z,9.10
2022-10-05T01:07:18.562Z,9.20
2022-10-05T01:10:24.368Z,9.30
2022-10-05T01:13:09.974Z,9.50
2022-10-05T01:15:46.777Z,9.50
2022-10-05T01:18:27.936Z,9.50
2022-10-05T01:21:15.550Z,9.50
2022-10-05T01:23:56.225Z,9.60
2022-10-05T01:26:36.145Z,9.70
2022-10-05T01:29:25.749Z,9.70
2022-10-05T01:32:20.442Z,9.50
2022-10-05T01:35:07.093Z,9.50
2022-10-05T01:37:58.114Z,9.40
2022-10-05T01:40:49.646Z,9.40
2022-10-05T01:43:34.239Z,9.30
2022-10-05T01:46:12.097Z,9.20
2022-10-05T01:48:48.630Z,9.20
2022-10-05T01:51:43.534Z,9.10
2022-10-05T01:54:27.580Z,9.00
2022-10-05T01:57:18.004Z,9.10
2022-10-05T02:00:01.947Z,8.90
2022-10-05T02:02:30.815Z,8.90
2022-10-05T02:05:06.016Z,8.90
2022-10-05T02:07:42.563Z,8.80
2022-10-05T02:10:20.321Z,8.80
2022-10-05T02:12:51.858Z,8.70
2022-10-05T02:15:20.498Z,8.50
2022-10-05T02:17:56.108Z,8.60
2022-10-05T02:20:27.644Z,8.50
2022-10-05T02:22:57.805Z,8.40
2022-10-05T02:25:31.260Z,8.40
2022-10-05T02:28:26.530Z,8.30
2022-10-05T02:31:00.589Z,8.40
2022-10-05T02:33:32.631Z,8.30
2022-10-05T02:36:02.397Z,8.30
2022-10-05T02:38:55.724Z,8.20
2022-10-05T02:41:53.236Z,8.10
2022-10-05T02:44:28.634Z,8.20
2022-10-05T02:47:11.306Z,8.10
2022-10-05T02:49:52.165Z,8.10
2022-10-05T02:52:21.621Z,8.10
2022-10-05T02:55:05.762Z,8.10
2022-10-05T02:57:42.449Z,8.10
2022-10-05T03:00:16.810Z,8.20
2022-10-05T03:02:52.352Z,8.20
2022-10-05T03:05:38.788Z,8.30
2022-10-05T03:08:12.945Z,8.30
2022-10-05T03:11:04.865Z,8.40
2022-10-05T03:13:45.700Z,8.40
2022-10-05T03:16:38.314Z,8.50
2022-10-05T03:19:17.945Z,8.60
2022-10-05T03:21:52.323Z,8.60
2022-10-05T03:24:39.843Z,8.70
2022-10-05T03:27:28.050Z,8.70
2022-10-05T03:30:26.493Z,8.70
2022-10-05T03:33:39.493Z,8.80
2022-10-05T03:36:38.355Z,8.80
2022-10-05T03:39:17.280Z,8.90
2022-10-05T03:42:04.256Z,8.90
2022-10-05T03:44:40.872Z,9.00
2022-10-05T03:47:35.603Z,9.00
2022-10-05T03:50:15.001Z,9.00
2022-10-05T03:52:47.945Z,9.00
2022-10-05T03:55:24.272Z,9.10
2022-10-05T03:57:54.532Z,9.10
2022-10-05T04:00:24.033Z,9.20
2022-10-05T04:03:15.859Z,9.20
2022-10-05T04:06:07.125Z,9.20
2022-10-05T04:08:48.265Z,9.20
2022-10-05T04:11:26.325Z,9.20
2022-10-05T04:13:55.682Z,9.20
2022-10-05T04:16:31.432Z,9.20
2022-10-05T04:19:14.195Z,9.20
2022-10-05T04:21:52.254Z,9.20
2022-10-05T04:24:23.156Z,9.30
2022-10-05T04:27:03.170Z,9.30
2022-10-05T04:29:36.213Z,9.20
2022-10-05T04:32:16.138Z,9.40
2022-10-05T04:35:12.707Z,9.50
2022-10-05T04:38:29.816Z,9.40
2022-10-05T04:41:21.336Z,9.40
2022-10-05T04:44:19.140Z,9.50
2022-10-05T04:47:04.347Z,9.50
2022-10-05T04:50:09.907Z,9.30
2022-10-05T04:52:51.447Z,9.30
2022-10-05T04:55:37.715Z,9.30
2022-10-05T04:58:33.640Z,9.30
2022-10-05T05:01:08.134Z,9.30
2022-10-05T05:03:52.548Z,9.30
2022-10-05T05:06:30.712Z,9.40
2022-10-05T05:09:24.819Z,9.40
2022-10-05T05:12:07.592Z,9.50
2022-10-05T05:14:59.731Z,9.50
2022-10-05T05:17:56.593Z,9.40
2022-10-05T05:20:50.379Z,9.30
2022-10-05T05:23:31.436Z,9.40
2022-10-05T05:26:22.791Z,9.30
2022-10-05T05:29:17.074Z,9.30
2022-10-05T05:32:08.549Z,9.30
2022-10-05T05:34:54.492Z,9.30
2022-10-05T05:37:46.896Z,9.50
2022-10-05T05:40:18.063Z,9.60
2022-10-05T05:42:59.363Z,9.70
2022-10-05T05:45:44.015Z,9.90
2022-10-05T05:48:23.287Z,10.00
2022-10-05T05:50:57.105Z,10.00
2022-10-05T05:53:44.291Z,10.20
2022-10-05T05:56:17.495Z,10.30
2022-10-05T05:58:54.193Z,10.30
2022-10-05T06:01:33.536Z,10.40
2022-10-05T06:04:14.836Z,10.50
2022-10-05T06:06:46.898Z,10.60
2022-10-05T06:09:22.644Z,10.70
2022-10-05T06:11:54.068Z,10.80
2022-10-05T06:14:48.101Z,10.90
2022-10-05T06:17:31.993Z,11.00
2022-10-05T06:20:04.987Z,11.10
2022-10-05T06:22:39.668Z,11.20
2022-10-05T06:25:12.762Z,11.30
2022-10-05T06:27:59.747Z,11.40
2022-10-05T06:30:36.928Z,11.50
2022-10-05T06:33:03.325Z,11.60
2022-10-05T06:36:20.724Z,11.70
2022-10-05T06:39:20.714Z,11.70
2022-10-05T06:42:06.389Z,11.90
2022-10-05T06:44:57.063Z,11.90
2022-10-05T06:47:33.770Z,12.10
2022-10-05T06:50:15.282Z,12.30
2022-10-05T06:53:02.745Z,12.40
2022-10-05T06:55:45.561Z,12.70
2022-10-05T06:58:53.418Z,12.70
2022-10-05T07:01:50.653Z,13.00
2022-10-05T07:04:54.033Z,15.80
2022-10-05T07:07:32.515Z,16.40
2022-10-05T07:10:31.608Z,16.50
2022-10-05T07:13:42.547Z,15.70
2022-10-05T07:16:37.930Z,15.00
2022-10-05T07:19:18.650Z,14.80
2022-10-05T07:22:16.305Z,15.70
2022-10-05T07:24:54.048Z,16.70
2022-10-05T07:27:23.664Z,16.40
2022-10-05T07:30:06.690Z,20.00
2022-10-05T07:33:12.137Z,21.40
2022-10-05T07:36:09.347Z,22.00
2022-10-05T07:38:59.585Z,21.10
2022-10-05T07:41:37.277Z,18.50
2022-10-05T07:44:12.982Z,18.50
2022-10-05T07:46:51.960Z,17.90
2022-10-05T07:49:32.668Z,17.40
2022-10-05T07:52:05.402Z,17.60
2022-10-05T07:54:47.445Z,17.20
2022-10-05T07:57:32.493Z,16.80
2022-10-05T08:00:11.350Z,16.80
2022-10-05T08:02:44.551Z,17.20
2022-10-05T08:05:28.862Z,16.80
2022-10-05T08:08:12.338Z,16.40
2022-10-05T08:11:02.139Z,16.20
2022-10-05T08:13:28.535Z,16.30
2022-10-05T08:15:59.135Z,16.60
2022-10-05T08:18:45.944Z,16.40
2022-10-05T08:21:16.060Z,16.70
2022-10-05T08:23:58.036Z,16.80
2022-10-05T08:26:29.249Z,16.50
2022-10-05T08:29:20.616Z,17.00
2022-10-05T08:31:50.771Z,16.50
2022-10-05T08:34:30.953Z,16.90
2022-10-05T08:37:18.933Z,17.60
2022-10-05T08:40:27.439Z,17.40
2022-10-05T08:43:09.782Z,18.10
2022-10-05T08:46:02.827Z,18.40
2022-10-05T08:48:57.556Z,19.00
2022-10-05T08:51:32.635Z,19.40
2022-10-05T08:54:20.374Z,18.40
2022-10-05T08:57:24.469Z,18.50
2022-10-05T09:00:10.744Z,18.20
2022-10-05T09:02:55.984Z,17.80
2022-10-05T09:05:58.538Z,18.00
2022-10-05T09:09:07.754Z,18.00
2022-10-05T09:11:55.046Z,18.70
2022-10-05T09:15:13.653Z,18.20
2022-10-05T09:18:12.985Z,18.00
2022-10-05T09:20:53.852Z,17.90
2022-10-05T09:23:40.289Z,17.90
2022-10-05T09:26:40.773Z,18.10
2022-10-05T09:29:54.443Z,18.10
2022-10-05T09:32:58.525Z,18.30
2022-10-05T09:35:58.128Z,18.20
2022-10-05T09:38:43.811Z,18.80
2022-10-05T09:41:38.065Z,19.00
2022-10-05T09:44:36.258Z,19.30
2022-10-05T09:47:17.652Z,19.50
2022-10-05T09:50:06.979Z,19.80
2022-10-05T09:52:42.463Z,20.30
2022-10-05T09:55:31.160Z,19.70
2022-10-05T09:58:40.583Z,19.30
2022-10-05T10:01:33.665Z,20.60
2022-10-05T10:04:37.423Z,22.90
2022-10-05T10:07:31.494Z,22.80
2022-10-05T10:10:10.914Z,21.70
2022-10-05T10:12:55.074Z,22.40
2022-10-05T10:15:53.617Z,23.00
2022-10-05T10:18:47.958Z,24.90
2022-10-05T10:21:33.588Z,28.40
2022-10-05T10:24:03.640Z,29.20
2022-10-05T10:26:51.497Z,26.50
2022-10-05T10:29:37.128Z,25.10
2022-10-05T10:32:55.058Z,24.60
2022-10-05T10:35:37.825Z,24.60
2022-10-05T10:38:30.876Z,21.60
2022-10-05T10:41:25.444Z,22.00
2022-10-05T10:44:14.623Z,22.50
2022-10-05T10:47:05.245Z,22.40
2022-10-05T10:50:08.265Z,25.60
2022-10-05T10:52:55.636Z,26.70
2022-10-05T10:55:30.901Z,24.70
2022-10-05T10:58:24.233Z,22.90
2022-10-05T11:01:20.169Z,23.60
2022-10-05T11:04:23.483Z,25.60
2022-10-05T11:07:22.268Z,26.20
2022-10-05T11:10:00.402Z,24.30
2022-10-05T11:12:48.720Z,23.80
2022-10-05T11:15:43.397Z,26.70
2022-10-05T11:18:33.561Z,28.70
2022-10-05T11:21:17.364Z,26.90
2022-10-05T11:24:02.126Z,30.00
2022-10-05T11:27:05.101Z,30.00
2022-10-05T11:30:05.845Z,27.40
2022-10-05T11:33:11.302Z,27.30
2022-10-05T11:35:59.677Z,25.80
2022-10-05T11:38:53.920Z,25.90
2022-10-05T11:41:41.319Z,25.00
2022-10-05T11:44:46.779Z,24.60
2022-10-05T11:47:37.727Z,24.20
2022-10-05T11:50:20.334Z,23.90
2022-10-05T11:53:01.721Z,23.90
2022-10-05T11:55:37.398Z,23.20
2022-10-05T11:58:20.187Z,23.20
2022-10-05T12:00:54.537Z,23.60
2022-10-05T12:03:46.107Z,24.40
2022-10-05T12:06:38.458Z,24.80
2022-10-05T12:09:23.450Z,24.90
2022-10-05T12:12:15.765Z,24.60
2022-10-05T12:15:01.881Z,23.50
2022-10-05T12:17:28.256Z,24.70
2022-10-05T12:20:02.884Z,24.60
2022-10-05T12:22:40.358Z,24.00
2022-10-05T12:25:29.862Z,24.10
2022-10-05T12:28:04.859Z,24.10
2022-10-05T12:31:00.452Z,23.50
2022-10-05T12:33:34.681Z,24.10
2022-10-05T12:36:24.714Z,23.40
2022-10-05T12:39:01.789Z,23.80
2022-10-05T12:41:34.309Z,24.20
2022-10-05T12:44:09.217Z,24.30
2022-10-05T12:46:51.008Z,24.00
2022-10-05T12:49:44.386Z,24.30
2022-10-05T12:52:43.323Z,24.40
2022-10-05T12:55:28.957Z,23.90
2022-10-05T12:58:05.321Z,23.90
2022-10-05T13:00:36.364Z,23.60
2022-10-05T13:03:15.253Z,23.20
2022-10-05T13:06:11.967Z,23.50
2022-10-05T13:08:51.386Z,23.50
2022-10-05T13:11:52.531Z,24.00
2022-10-05T13:14:44.601Z,24.40
2022-10-05T13:17:35.601Z,24.40
2022-10-05T13:20:13.625Z,24.90
2022-10-05T13:22:43.569Z,24.30
2022-10-05T13:25:28.775Z,24.60
2022-10-05T13:28:16.593Z,24.10
2022-10-05T13:30:52.212Z,24.80
2022-10-05T13:33:28.955Z,25.20
2022-10-05T13:36:11.100Z,25.40
2022-10-05T13:38:57.948Z,25.30
2022-10-05T13:41:50.018Z,24.20
2022-10-05T13:44:28.845Z,24.40
2022-10-05T13:46:58.138Z,24.60
2022-10-05T13:49:53.705Z,24.20
2022-10-05T13:52:22.699Z,23.80
2022-10-05T13:55:10.919Z,23.80
2022-10-05T13:58:05.982Z,23.60
2022-10-05T14:00:54.608Z,23.90
2022-10-05T14:03:27.900Z,23.60
2022-10-05T14:05:59.900Z,23.70
2022-10-05T14:08:33.377Z,23.80
2022-10-05T14:11:19.429Z,23.90
2022-10-05T14:13:47.686Z,23.90
2022-10-05T14:16:25.367Z,24.20
2022-10-05T14:18:55.337Z,23.20
2022-10-05T14:21:28.658Z,23.30
2022-10-05T14:23:58.713Z,23.80
2022-10-05T14:26:34.097Z,24.10
2022-10-05T14:29:16.661Z,24.10
2022-10-05T14:31:53.809Z,23.90
2022-10-05T14:34:29.309Z,23.40
2022-10-05T14:37:18.183Z,23.20
2022-10-05T14:39:50.140Z,24.00
2022-10-05T14:42:26.666Z,23.90
2022-10-05T14:45:03.540Z,23.70
2022-10-05T14:47:31.535Z,23.20
2022-10-05T14:50:16.696Z,23.30
2022-10-05T14:53:18.072Z,22.70
2022-10-05T14:56:08.704Z,22.30
2022-10-05T14:58:59.602Z,22.70
2022-10-05T15:01:31.436Z,22.80
2022-10-05T15:04:38.957Z,22.80
2022-10-05T15:07:18.112Z,22.50
2022-10-05T15:10:17.170Z,22.10
2022-10-05T15:12:49.150Z,22.20
2022-10-05T15:15:32.919Z,22.00
2022-10-05T15:18:12.167Z,21.30
2022-10-05T15:21:09.009Z,21.30
2022-10-05T15:23:42.697Z,21.10
2022-10-05T15:26:22.543Z,20.90
2022-10-05T15:28:59.048Z,20.70
2022-10-05T15:31:36.774Z,20.90
2022-10-05T15:34:16.472Z,20.70
2022-10-05T15:36:54.799Z,20.70
2022-10-05T15:39:40.017Z,20.70
2022-10-05T15:42:16.853Z,20.60
2022-10-05T15:44:58.545Z,20.60
2022-10-05T15:47:43.787Z,20.30
2022-10-05T15:50:17.875Z,20.00
2022-10-05T15:52:47.835Z,19.80
2022-10-05T15:55:47.233Z,20.00
2022-10-05T15:58:31.278Z,19.50
2022-10-05T16:01:04.209Z,19.50
2022-10-05T16:03:44.176Z,19.30
2022-10-05T16:06:56.279Z,19.30
2022-10-05T16:09:36.586Z,19.20
2022-10-05T16:12:13.903Z,18.90
2022-10-05T16:15:17.580Z,19.10
2022-10-05T16:18:22.358Z,18.90
2022-10-05T16:21:05.442Z,18.80
2022-10-05T16:23:47.342Z,18.60
2022-10-05T16:26:32.724Z,18.40
2022-10-05T16:29:12.988Z,18.20
2022-10-05T16:32:05.043Z,18.10
2022-10-05T16:34:56.070Z,17.90
2022-10-05T16:37:50.567Z,17.90
2022-10-05T16:40:36.353Z,17.90
2022-10-05T16:43:38.400Z,17.70
2022-10-05T16:46:27.708Z,17.70
2022-10-05T16:49:09.748Z,17.60
2022-10-05T16:51:51.269Z,17.60
2022-10-05T16:54:25.796Z,17.50
2022-10-05T16:56:59.547Z,17.40
2022-10-05T16:59:55.880Z,17.40
2022-10-05T17:02:56.232Z,17.40
2022-10-05T17:06:01.635Z,17.10
2022-10-05T17:08:49.665Z,17.30
2022-10-05T17:11:27.450Z,17.30
2022-10-05T17:14:21.894Z,16.90
2022-10-05T17:16:57.194Z,16.80
2022-10-05T17:19:34.233Z,16.80
2022-10-05T17:22:23.513Z,16.90
2022-10-05T17:25:04.521Z,16.80
2022-10-05T17:27:55.853Z,16.60
2022-10-05T17:31:16.122Z,16.20
2022-10-05T17:34:00.338Z,15.90
2022-10-05T17:36:57.755Z,15.80
2022-10-05T17:39:46.389Z,15.40
2022-10-05T17:42:31.406Z,15.40
2022-10-05T17:45:00.447Z,15.20
2022-10-05T17:48:03.012Z,15.20
2022-10-05T17:50:58.442Z,14.90
2022-10-05T17:53:52.719Z,14.80
2022-10-05T17:56:20.463Z,14.60
2022-10-05T17:58:46.842Z,14.60
2022-10-05T18:01:18.094Z,14.50
2022-10-05T18:03:49.928Z,14.40
2022-10-05T18:07:05.515Z,14.30
2022-10-05T18:09:37.544Z,14.30
2022-10-05T18:12:16.093Z,14.10
2022-10-05T18:15:07.366Z,14.10
2022-10-05T18:17:41.983Z,13.80
2022-10-05T18:20:28.744Z,13.80
2022-10-05T18:23:01.155Z,13.60
2022-10-05T18:25:51.570Z,13.80
2022-10-05T18:28:39.389Z,13.70
2022-10-05T18:31:26.157Z,13.50
2022-10-05T18:34:42.678Z,13.50
2022-10-05T18:37:39.208Z,13.40
2022-10-05T18:40:30.303Z,13.40
2022-10-05T18:43:22.166Z,13.30
2022-10-05T18:46:05.820Z,13.10
2022-10-05T18:48:51.843Z,13.20
2022-10-05T18:51:52.984Z,13.10
2022-10-05T18:54:57.608Z,13.00
2022-10-05T18:57:51.391Z,13.00
2022-10-05T19:00:48.087Z,13.00
2022-10-05T19:03:40.490Z,12.90
2022-10-05T19:06:25.701Z,12.90
2022-10-05T19:09:07.202Z,12.80
2022-10-05T19:12:06.897Z,12.80
2022-10-05T19:14:43.526Z,12.70
2022-10-05T19:17:24.563Z,12.70
2022-10-05T19:20:18.589Z,13.00
2022-10-05T19:23:21.812Z,13.10
2022-10-05T19:26:15.010Z,13.10
2022-10-05T19:28:48.991Z,13.00
2022-10-05T19:31:29.755Z,12.90
2022-10-05T19:34:10.651Z,13.00
2022-10-05T19:37:31.419Z,13.10
2022-10-05T19:40:18.415Z,13.20
2022-10-05T19:42:59.852Z,13.30
2022-10-05T19:45:29.568Z,13.50
2022-10-05T19:48:22.881Z,13.70
2022-10-05T19:51:00.922Z,13.70
2022-10-05T19:53:36.965Z,13.80
2022-10-05T19:56:20.027Z,13.70
2022-10-05T19:58:48.042Z,13.80
2022-10-05T20:01:34.015Z,13.80
2022-10-05T20:04:00.689Z,13.90
2022-10-05T20:06:29.460Z,13.90
2022-10-05T20:09:02.698Z,14.00
2022-10-05T20:11:29.487Z,14.10
2022-10-05T20:14:01.946Z,14.00
2022-10-05T20:16:49.283Z,14.00
2022-10-05T20:19:49.815Z,13.90
2022-10-05T20:22:30.786Z,14.00
2022-10-05T20:25:01.065Z,14.10
2022-10-05T20:27:49.884Z,14.00
2022-10-05T20:30:21.431Z,14.00
2022-10-05T20:32:52.523Z,13.90
2022-10-05T20:35:22.991Z,13.90
2022-10-05T20:37:52.191Z,13.90
2022-10-05T20:40:19.713Z,13.90
2022-10-05T20:42:46.869Z,14.00
2022-10-05T20:45:14.102Z,13.90
2022-10-05T20:47:40.796Z,13.90
2022-10-05T20:50:11.778Z,14.00
2022-10-05T20:52:39.585Z,14.00
2022-10-05T20:55:09.053Z,14.10
2022-10-05T20:57:38.538Z,14.10
2022-10-05T21:00:06.840Z,14.10
2022-10-05T21:02:33.264Z,14.20
2022-10-05T21:04:59.776Z,14.30
2022-10-05T21:07:26.377Z,14.20
2022-10-05T21:09:53.809Z,14.20
2022-10-05T21:12:20.233Z,14.20
2022-10-05T21:14:47.364Z,14.40
2022-10-05T21:17:14.161Z,14.40
2022-10-05T21:19:40.754Z,14.50
2022-10-05T21:22:08.866Z,14.40
2022-10-05T21:24:40.231Z,14.40
2022-10-05T21:27:07.164Z,14.30
2022-10-05T21:29:34.361Z,14.40
2022-10-05T21:32:01.340Z,14.40
2022-10-05T21:34:28.844Z,14.50
2022-10-05T21:36:58.004Z,14.60
2022-10-05T21:39:24.694Z,14.50
2022-10-05T21:41:51.404Z,14.60
2022-10-05T21:44:18.296Z,14.60
2022-10-05T21:46:44.997Z,14.50
2022-10-05T21:49:13.343Z,14.50
2022-10-05T21:51:41.500Z,14.50
2022-10-05T21:54:15.158Z,14.50
2022-10-05T21:56:44.802Z,14.40
2022-10-05T21:59:13.908Z,14.50
2022-10-05T22:01:40.345Z,14.60
2022-10-05T22:04:08.113Z,14.60
2022-10-05T22:06:35.418Z,14.60
2022-10-05T22:09:02.863Z,14.70
2022-10-05T22:11:29.697Z,14.70
2022-10-05T22:14:02.647Z,14.60
2022-10-05T22:16:32.753Z,14.50
2022-10-05T22:19:05.980Z,14.60
2022-10-05T22:21:37.823Z,14.60
2022-10-05T22:24:05.750Z,14.60
2022-10-05T22:26:32.858Z,14.70
2022-10-05T22:29:00.298Z,14.60
2022-10-05T22:31:26.789Z,14.60
2022-10-05T22:33:53.396Z,14.60
2022-10-05T22:36:21.645Z,14.60
2022-10-05T22:38:48.461Z,14.60
2022-10-05T22:41:18.169Z,14.70
2022-10-05T22:43:44.703Z,14.70
2022-10-05T22:46:12.943Z,14.60
2022-10-05T22:48:40.136Z,14.60
2022-10-05T22:51:07.394Z,14.60
2022-10-05T22:53:34.547Z,14.50
2022-10-05T22:56:08.868Z,14.60
2022-10-05T22:58:36.535Z,14.60
2022-10-05T23:01:08.646Z,14.60
2022-10-05T23:03:35.427Z,14.60
2022-10-05T23:06:09.167Z,14.60
2022-10-05T23:08:37.098Z,14.60
2022-10-05T23:11:08.892Z,14.60
2022-10-05T23:13:35.679Z,14.50
2022-10-05T23:16:08.024Z,14.50
2022-10-05T23:18:35.230Z,14.50
2022-10-05T23:21:02.151Z,14.70
2022-10-05T23:23:28.548Z,14.70
2022-10-05T23:26:02.482Z,14.70
2022-10-05T23:28:29.286Z,14.80
2022-10-05T23:31:04.919Z,14.70
2022-10-05T23:33:33.670Z,14.80
2022-10-05T23:36:06.481Z,14.80
2022-10-05T23:38:33.993Z,14.80
2022-10-05T23:41:00.720Z,14.90
2022-10-05T23:43:27.530Z,15.00
2022-10-05T23:45:54.326Z,14.90
2022-10-05T23:48:20.986Z,14.90
2022-10-05T23:50:49.056Z,14.90
2022-10-05T23:53:17.255Z,15.00
2022-10-05T23:55:43.987Z,14.90
2022-10-05T23:58:10.593Z,15.00
